CheckWX is a tool to help pilots better visualize weather data.  It is not intended as a substitute for an official pre-flight weather briefing.

03:14:21 UTC

KPNE METAR
Northeast Philadelphia Airport
Philadelphia, Pennsylvania, USA
Current

20 mins ago

KPNE 150254Z 29003KT 10SM CLR 25/17 A3007 RMK AO2 SLP180 T02500167 51014
Observed
Jul-15 @ 02:54 UTC
Wind
  • 290° at 3 KTS
Visibility
10 SM
Flight Rules
VFR
Cloud Levels
  • Clear skies
Temperature
25°C / 77°F
Dewpoint
17°C / 63°F
Humidity
61%
Altimeter
30.07" Hg
Pressure
1018.32 hPa
Previous

1 hour ago

KPNE 150154Z 00000KT 10SM FEW065 26/17 A3005 RMK AO2 SLP176 T02560167
Observed
Jul-15 @ 01:54 UTC
Visibility
10 SM
Flight Rules
VFR
Cloud Levels
  • Few at 6,500' AGL
Temperature
26°C / 79°F
Dewpoint
17°C / 63°F
Humidity
58%
Altimeter
30.05" Hg
Pressure
1017.62 hPa
Previous

2 hours ago

KPNE 150054Z 00000KT 10SM BKN100 27/16 A3004 RMK AO2 SLP172 T02670161
Observed
Jul-15 @ 00:54 UTC
Visibility
10 SM
Flight Rules
VFR
Cloud Levels
  • Broken at 10,000' AGL
Temperature
27°C / 81°F
Dewpoint
16°C / 61°F
Humidity
51%
Altimeter
30.04" Hg
Pressure
1017.32 hPa